地図

経路データ

SID SEASON NUMBER BASIN SUBBASIN NAME ISO_TIME NATURE LAT LON WMO_WIND WMO_PRES WMO_AGENCY TRACK_TYPE DIST2LAND LANDFALL IFLAG USA_AGENCY USA_ATCF_ID USA_LAT USA_LON USA_RECORD USA_STATUS USA_WIND USA_PRES USA_SSHS USA_R34_NE USA_R34_SE USA_R34_SW USA_R34_NW USA_R50_NE USA_R50_SE USA_R50_SW USA_R50_NW USA_R64_NE USA_R64_SE USA_R64_SW USA_R64_NW USA_POCI USA_ROCI USA_RMW USA_EYE TOKYO_LAT TOKYO_LON TOKYO_GRADE TOKYO_WIND TOKYO_PRES TOKYO_R50_DIR TOKYO_R50_LONG TOKYO_R50_SHORT TOKYO_R30_DIR TOKYO_R30_LONG TOKYO_R30_SHORT TOKYO_LAND CMA_LAT CMA_LON CMA_CAT CMA_WIND CMA_PRES HKO_LAT HKO_LON HKO_CAT HKO_WIND HKO_PRES NEWDELHI_LAT NEWDELHI_LON NEWDELHI_GRADE NEWDELHI_WIND NEWDELHI_PRES NEWDELHI_CI NEWDELHI_DP NEWDELHI_POCI REUNION_LAT REUNION_LON REUNION_TYPE REUNION_WIND REUNION_PRES REUNION_TNUM REUNION_CI REUNION_RMW REUNION_R34_NE REUNION_R34_SE REUNION_R34_SW REUNION_R34_NW REUNION_R50_NE REUNION_R50_SE REUNION_R50_SW REUNION_R50_NW REUNION_R64_NE REUNION_R64_SE REUNION_R64_SW REUNION_R64_NW BOM_LAT BOM_LON BOM_TYPE BOM_WIND BOM_PRES BOM_TNUM BOM_CI BOM_RMW BOM_R34_NE BOM_R34_SE BOM_R34_SW BOM_R34_NW BOM_R50_NE BOM_R50_SE BOM_R50_SW BOM_R50_NW BOM_R64_NE BOM_R64_SE BOM_R64_SW BOM_R64_NW BOM_ROCI BOM_POCI BOM_EYE BOM_POS_METHOD BOM_PRES_METHOD NADI_LAT NADI_LON NADI_CAT NADI_WIND NADI_PRES WELLINGTON_LAT WELLINGTON_LON WELLINGTON_WIND WELLINGTON_PRES DS824_LAT DS824_LON DS824_STAGE DS824_WIND DS824_PRES TD9636_LAT TD9636_LON TD9636_STAGE TD9636_WIND TD9636_PRES TD9635_LAT TD9635_LON TD9635_WIND TD9635_PRES TD9635_ROCI NEUMANN_LAT NEUMANN_LON NEUMANN_CLASS NEUMANN_WIND NEUMANN_PRES MLC_LAT MLC_LON MLC_CLASS MLC_WIND MLC_PRES USA_GUST BOM_GUST BOM_GUST_PER REUNION_GUST REUNION_GUST_PER USA_SEAHGT USA_SEARAD_NE USA_SEARAD_SE USA_SEARAD_SW USA_SEARAD_NW STORM_SPEED STORM_DIR
1964257N15316 1964 82 NA NA GLADYS 1964-09-13 06:00:00 TS 14.7000 -44.5000 55 hurdat_atl main 1382 1363 O_____________ hurdat_atl AL091964 14.7000 -44.5000 TS 55 0 16 295
1964257N15316 1964 82 NA NA GLADYS 1964-09-13 09:00:00 TS 15.0405 -45.2496 main 1363 1347 P_____________ AL091964 15.0405 -45.2496 TS 55 0 16 296
1964257N15316 1964 82 NA NA GLADYS 1964-09-13 12:00:00 TS 15.4000 -46.0000 55 hurdat_atl main 1351 1341 O_____________ hurdat_atl AL091964 15.4000 -46.0000 TS 55 0 16 297
1964257N15316 1964 82 NA NA GLADYS 1964-09-13 15:00:00 TS 15.7922 -46.7502 main 1345 1345 P_____________ AL091964 15.7922 -46.7502 TS 55 0 17 299
1964257N15316 1964 82 NA NA GLADYS 1964-09-13 18:00:00 TS 16.2000 -47.5000 55 hurdat_atl main 1350 1346 O_____________ hurdat_atl AL091964 16.2000 -47.5000 TS 55 0 17 299
1964257N15316 1964 82 NA NA GLADYS 1964-09-13 21:00:00 TS 16.5922 -48.2504 main 1357 1357 P_____________ AL091964 16.5922 -48.2504 TS 57 0 16 299
1964257N15316 1964 82 NA NA GLADYS 1964-09-14 00:00:00 TS 17.0000 -49.0000 60 997 hurdat_atl main 1365 1361 O_____________ hurdat_atl AL091964 17.0000 -49.0000 TS 60 997 0 17 301
1964257N15316 1964 82 NA NA GLADYS 1964-09-14 03:00:00 TS 17.4422 -49.7503 main 1373 1373 P_____________ AL091964 17.4422 -49.7503 TS 60 995 0 17 302
1964257N15316 1964 82 NA NA GLADYS 1964-09-14 06:00:00 TS 17.9000 -50.5000 60 hurdat_atl main 1388 1354 I_____________ hurdat_atl AL091964 17.9000 -50.5000 TS 60 994 0 17 303
1964257N15316 1964 82 NA NA GLADYS 1964-09-14 09:00:00 TS 18.3573 -51.2577 main 1353 1325 P_____________ AL091964 18.3573 -51.2577 TS 62 993 0 17 302
1964257N15316 1964 82 NA NA GLADYS 1964-09-14 12:00:00 TS 18.8000 -52.0000 65 992 hurdat_atl main 1325 1302 O_____________ hurdat_atl AL091964 18.8000 -52.0000 HU 65 992 1 16 302
1964257N15316 1964 82 NA NA GLADYS 1964-09-14 15:00:00 TS 19.2224 -52.7301 main 1303 1285 P_____________ AL091964 19.2224 -52.7301 HU 65 993 1 15 301
1964257N15316 1964 82 NA NA GLADYS 1964-09-14 18:00:00 TS 19.6000 -53.4000 65 994 hurdat_atl main 1287 1229 O_____________ hurdat_atl AL091964 19.6000 -53.4000 HU 65 994 1 14 301
1964257N15316 1964 82 NA NA GLADYS 1964-09-14 21:00:00 TS 19.9222 -53.9878 main 1229 1181 P_____________ AL091964 19.9222 -53.9878 HU 65 994 1 12 300
1964257N15316 1964 82 NA NA GLADYS 1964-09-15 00:00:00 TS 20.2000 -54.5000 65 994 hurdat_atl main 1181 1144 O_____________ hurdat_atl AL091964 20.2000 -54.5000 HU 65 994 1 11 300
1964257N15316 1964 82 NA NA GLADYS 1964-09-15 03:00:00 TS 20.4573 -54.9727 main 1135 1099 P_____________ AL091964 20.4573 -54.9727 HU 62 994 0 10 301
1964257N15316 1964 82 NA NA GLADYS 1964-09-15 06:00:00 TS 20.7000 -55.4000 60 hurdat_atl main 1099 1063 I_____________ hurdat_atl AL091964 20.7000 -55.4000 TS 60 995 0 9 302
1964257N15316 1964 82 NA NA GLADYS 1964-09-15 09:00:00 TS 20.9498 -55.8002 main 1063 1031 P_____________ AL091964 20.9498 -55.8002 TS 60 995 0 9 304
1964257N15316 1964 82 NA NA GLADYS 1964-09-15 12:00:00 TS 21.2000 -56.2000 60 996 hurdat_atl main 1031 998 O_____________ hurdat_atl AL091964 21.2000 -56.2000 TS 60 996 0 9 303
1964257N15316 1964 82 NA NA GLADYS 1964-09-15 15:00:00 TS 21.4499 -56.6352 main 998 961 P_____________ AL091964 21.4499 -56.6352 TS 60 994 0 10 301
1964257N15316 1964 82 NA NA GLADYS 1964-09-15 18:00:00 TS 21.7000 -57.1000 60 992 hurdat_atl main 961 922 O_____________ hurdat_atl AL091964 21.7000 -57.1000 TS 60 992 0 10 299
1964257N15316 1964 82 NA NA GLADYS 1964-09-15 21:00:00 TS 21.9499 -57.5926 main 922 889 P_____________ AL091964 21.9499 -57.5926 TS 60 0 11 298
1964257N15316 1964 82 NA NA GLADYS 1964-09-16 00:00:00 TS 22.2000 -58.1000 60 hurdat_atl main 889 855 O_____________ hurdat_atl AL091964 22.2000 -58.1000 TS 60 0 11 299
1964257N15316 1964 82 NA NA GLADYS 1964-09-16 03:00:00 TS 22.4649 -58.6075 main 861 829 P_____________ AL091964 22.4649 -58.6075 TS 62 0 11 298
1964257N15316 1964 82 NA NA GLADYS 1964-09-16 06:00:00 TS 22.7000 -59.1000 65 hurdat_atl main 829 803 O_____________ hurdat_atl AL091964 22.7000 -59.1000 HU 65 1 10 295
1964257N15316 1964 82 NA NA GLADYS 1964-09-16 09:00:00 TS 22.8648 -59.5578 main 801 776 P_____________ AL091964 22.8648 -59.5578 HU 67 1 9 290
1964257N15316 1964 82 NA NA GLADYS 1964-09-16 12:00:00 TS 23.0000 -60.0000 70 986 hurdat_atl main 776 753 O_____________ hurdat_atl AL091964 23.0000 -60.0000 HU 70 986 1 9 289
1964257N15316 1964 82 NA NA GLADYS 1964-09-16 15:00:00 TS 23.1422 -60.4352 main 753 733 P_____________ AL091964 23.1422 -60.4352 HU 72 1 9 290
1964257N15316 1964 82 NA NA GLADYS 1964-09-16 18:00:00 TS 23.3000 -60.9000 75 hurdat_atl main 733 715 O_____________ hurdat_atl AL091964 23.3000 -60.9000 HU 75 1 10 290
1964257N15316 1964 82 NA NA GLADYS 1964-09-16 21:00:00 TS 23.4850 -61.4351 main 717 696 P_____________ AL091964 23.4850 -61.4351 HU 75 1 11 292
1964257N15316 1964 82 NA NA GLADYS 1964-09-17 00:00:00 TS 23.7000 -62.0000 75 hurdat_atl main 700 693 O_____________ hurdat_atl AL091964 23.7000 -62.0000 HU 75 1 11 295
1964257N15316 1964 82 NA NA GLADYS 1964-09-17 03:00:00 TS 23.9575 -62.5649 main 699 690 P_____________ AL091964 23.9575 -62.5649 HU 80 1 11 296
1964257N15316 1964 82 NA NA GLADYS 1964-09-17 06:00:00 TS 24.2000 -63.1000 85 974 hurdat_atl main 698 694 O_____________ hurdat_atl AL091964 24.2000 -63.1000 HU 85 974 2 10 294
1964257N15316 1964 82 NA NA GLADYS 1964-09-17 09:00:00 TS 24.3496 -63.5506 main 691 691 P_____________ AL091964 24.3496 -63.5506 HU 95 964 2 9 290
1964257N15316 1964 82 NA NA GLADYS 1964-09-17 12:00:00 TS 24.5000 -64.0000 105 954 hurdat_atl main 701 699 O_____________ hurdat_atl AL091964 24.5000 -64.0000 HU 105 954 3 10 293
1964257N15316 1964 82 NA NA GLADYS 1964-09-17 15:00:00 TS 24.7427 -64.5572 main 711 711 P_____________ AL091964 24.7427 -64.5572 HU 110 949 3 11 297
1964257N15316 1964 82 NA NA GLADYS 1964-09-17 18:00:00 TS 25.0000 -65.1000 115 945 hurdat_atl main 739 739 O_____________ hurdat_atl AL091964 25.0000 -65.1000 HU 115 945 4 10 298
1964257N15316 1964 82 NA NA GLADYS 1964-09-17 21:00:00 TS 25.2073 -65.5378 main 760 760 P_____________ AL091964 25.2073 -65.5378 HU 112 948 3 8 299
1964257N15316 1964 82 NA NA GLADYS 1964-09-18 00:00:00 TS 25.4000 -65.9000 110 951 hurdat_atl main 766 761 O_____________ hurdat_atl AL091964 25.4000 -65.9000 HU 110 951 3 7 303
1964257N15316 1964 82 NA NA GLADYS 1964-09-18 03:00:00 TS 25.6073 -66.2151 main 772 768 P_____________ AL091964 25.6073 -66.2151 HU 110 951 3 7 306
1964257N15316 1964 82 NA NA GLADYS 1964-09-18 06:00:00 TS 25.8000 -66.5000 110 951 hurdat_atl main 780 775 O_____________ hurdat_atl AL091964 25.8000 -66.5000 HU 110 951 3 6 304
1964257N15316 1964 82 NA NA GLADYS 1964-09-18 09:00:00 TS 25.9574 -66.8001 main 786 778 P_____________ AL091964 25.9574 -66.8001 HU 110 951 3 6 299
1964257N15316 1964 82 NA NA GLADYS 1964-09-18 12:00:00 TS 26.1000 -67.1000 110 952 hurdat_atl main 784 781 O_____________ hurdat_atl AL091964 26.1000 -67.1000 HU 110 952 3 6 298
1964257N15316 1964 82 NA NA GLADYS 1964-09-18 15:00:00 TS 26.2500 -67.4075 main 784 784 P_____________ AL091964 26.2500 -67.4075 HU 110 952 3 6 299
1964257N15316 1964 82 NA NA GLADYS 1964-09-18 18:00:00 TS 26.4000 -67.7000 110 953 hurdat_atl main 792 785 O_____________ hurdat_atl AL091964 26.4000 -67.7000 HU 110 953 3 6 301
1964257N15316 1964 82 NA NA GLADYS 1964-09-18 21:00:00 TS 26.5499 -67.9576 main 780 780 P_____________ AL091964 26.5499 -67.9576 HU 110 950 3 5 304
1964257N15316 1964 82 NA NA GLADYS 1964-09-19 00:00:00 TS 26.7000 -68.2000 110 947 hurdat_atl main 784 778 O_____________ hurdat_atl AL091964 26.7000 -68.2000 HU 110 947 3 5 304
1964257N15316 1964 82 NA NA GLADYS 1964-09-19 03:00:00 TS 26.8500 -68.4575 main 774 774 P_____________ AL091964 26.8500 -68.4575 HU 110 949 3 5 304
1964257N15316 1964 82 NA NA GLADYS 1964-09-19 06:00:00 TS 27.0000 -68.7000 110 951 hurdat_atl main 781 775 O_____________ hurdat_atl AL091964 27.0000 -68.7000 HU 110 951 3 5 307
1964257N15316 1964 82 NA NA GLADYS 1964-09-19 09:00:00 TS 27.1499 -68.9076 main 779 779 P_____________ AL091964 27.1499 -68.9076 HU 105 955 3 5 310
1964257N15316 1964 82 NA NA GLADYS 1964-09-19 12:00:00 TS 27.3000 -69.1000 100 960 hurdat_atl main 787 782 O_____________ hurdat_atl AL091964 27.3000 -69.1000 HU 100 960 3 5 309
1964257N15316 1964 82 NA NA GLADYS 1964-09-19 15:00:00 TS 27.4500 -69.3225 main 797 792 P_____________ AL091964 27.4500 -69.3225 HU 100 961 3 5 310
1964257N15316 1964 82 NA NA GLADYS 1964-09-19 18:00:00 TS 27.6000 -69.5000 100 962 hurdat_atl main 797 797 O_____________ hurdat_atl AL091964 27.6000 -69.5000 HU 100 962 3 4 322
1964257N15316 1964 82 NA NA GLADYS 1964-09-19 21:00:00 TS 27.7349 -69.5726 main 803 803 P_____________ AL091964 27.7349 -69.5726 HU 100 962 3 3 344
1964257N15316 1964 82 NA NA GLADYS 1964-09-20 00:00:00 TS 27.9000 -69.6000 100 962 hurdat_atl main 823 823 O_____________ hurdat_atl AL091964 27.9000 -69.6000 HU 100 962 3 4 349
1964257N15316 1964 82 NA NA GLADYS 1964-09-20 03:00:00 TS 28.1350 -69.6574 main 839 839 P_____________ AL091964 28.1350 -69.6574 HU 97 963 3 5 350
1964257N15316 1964 82 NA NA GLADYS 1964-09-20 06:00:00 TS 28.4000 -69.7000 95 965 hurdat_atl main 870 870 O_____________ hurdat_atl AL091964 28.4000 -69.7000 HU 95 965 2 5 354
1964257N15316 1964 82 NA NA GLADYS 1964-09-20 09:00:00 TS 28.6500 -69.7150 main 901 891 P_____________ AL091964 28.6500 -69.7150 HU 90 966 2 5 2
1964257N15316 1964 82 NA NA GLADYS 1964-09-20 12:00:00 TS 28.9000 -69.7000 85 967 hurdat_atl main 910 894 O_____________ hurdat_atl AL091964 28.9000 -69.7000 HU 85 967 2 5 7
1964257N15316 1964 82 NA NA GLADYS 1964-09-20 15:00:00 TS 29.1575 -69.6575 main 886 877 P_____________ AL091964 29.1575 -69.6575 HU 85 965 2 5 10
1964257N15316 1964 82 NA NA GLADYS 1964-09-20 18:00:00 TS 29.4000 -69.6000 85 964 hurdat_atl main 877 862 O_____________ hurdat_atl AL091964 29.4000 -69.6000 HU 85 964 2 4 13
1964257N15316 1964 82 NA NA GLADYS 1964-09-20 21:00:00 TS 29.5925 -69.5425 main 869 854 P_____________ AL091964 29.5925 -69.5425 HU 82 964 1 4 12
1964257N15316 1964 82 NA NA GLADYS 1964-09-21 00:00:00 TS 29.8000 -69.5000 80 964 hurdat_atl main 854 831 O_____________ hurdat_atl AL091964 29.8000 -69.5000 HU 80 964 1 5 7
1964257N15316 1964 82 NA NA GLADYS 1964-09-21 03:00:00 TS 30.0700 -69.4776 main 831 809 P_____________ AL091964 30.0700 -69.4776 HU 77 966 1 6 0
1964257N15316 1964 82 NA NA GLADYS 1964-09-21 06:00:00 TS 30.4000 -69.5000 75 969 hurdat_atl main 809 780 O_____________ hurdat_atl AL091964 30.4000 -69.5000 HU 75 969 1 7 355
1964257N15316 1964 82 NA NA GLADYS 1964-09-21 09:00:00 TS 30.7624 -69.5628 main 773 739 P_____________ AL091964 30.7624 -69.5628 HU 70 974 1 8 348
1964257N15316 1964 82 NA NA GLADYS 1964-09-21 12:00:00 TS 31.2000 -69.7000 65 980 hurdat_atl main 739 689 O_____________ hurdat_atl AL091964 31.2000 -69.7000 HU 65 980 1 10 343
1964257N15316 1964 82 NA NA GLADYS 1964-09-21 15:00:00 TS 31.7500 -69.9197 main 682 624 P_____________ AL091964 31.7500 -69.9197 HU 65 978 1 12 339
1964257N15316 1964 82 NA NA GLADYS 1964-09-21 18:00:00 TS 32.3000 -70.2000 65 977 hurdat_atl main 624 574 O_____________ hurdat_atl AL091964 32.3000 -70.2000 HU 65 977 1 11 334
1964257N15316 1964 82 NA NA GLADYS 1964-09-21 21:00:00 TS 32.7375 -70.5001 main 574 524 P_____________ AL091964 32.7375 -70.5001 HU 65 980 1 9 328
1964257N15316 1964 82 NA NA GLADYS 1964-09-22 00:00:00 TS 33.1000 -70.8000 65 984 hurdat_atl main 524 490 O_____________ hurdat_atl AL091964 33.1000 -70.8000 HU 65 984 1 8 327
1964257N15316 1964 82 NA NA GLADYS 1964-09-22 03:00:00 TS 33.4449 -71.0576 main 482 448 P_____________ AL091964 33.4449 -71.0576 HU 65 982 1 7 325
1964257N15316 1964 82 NA NA GLADYS 1964-09-22 06:00:00 TS 33.7000 -71.3000 65 980 hurdat_atl main 448 427 O_____________ hurdat_atl AL091964 33.7000 -71.3000 HU 65 980 1 6 312
1964257N15316 1964 82 NA NA GLADYS 1964-09-22 09:00:00 TS 33.8225 -71.5579 main 419 397 P_____________ AL091964 33.8225 -71.5579 HU 65 982 1 5 296
1964257N15316 1964 82 NA NA GLADYS 1964-09-22 12:00:00 TS 33.9000 -71.8000 65 984 hurdat_atl main 397 376 O_____________ hurdat_atl AL091964 33.9000 -71.8000 HU 65 984 1 4 297
1964257N15316 1964 82 NA NA GLADYS 1964-09-22 15:00:00 TS 34.0200 -72.0226 main 376 348 P_____________ AL091964 34.0200 -72.0226 HU 65 983 1 4 312
1964257N15316 1964 82 NA NA GLADYS 1964-09-22 18:00:00 TS 34.2000 -72.2000 65 982 hurdat_atl main 348 329 O_____________ hurdat_atl AL091964 34.2000 -72.2000 HU 65 982 1 5 329
1964257N15316 1964 82 NA NA GLADYS 1964-09-22 21:00:00 TS 34.4625 -72.3447 main 324 301 P_____________ AL091964 34.4625 -72.3447 HU 67 980 1 6 345
1964257N15316 1964 82 NA NA GLADYS 1964-09-23 00:00:00 TS 34.8000 -72.4000 70 979 hurdat_atl main 301 287 O_____________ hurdat_atl AL091964 34.8000 -72.4000 HU 70 979 1 7 0
1964257N15316 1964 82 NA NA GLADYS 1964-09-23 03:00:00 TS 35.1850 -72.3451 main 296 290 P_____________ AL091964 35.1850 -72.3451 HU 72 978 1 8 12
1964257N15316 1964 82 NA NA GLADYS 1964-09-23 06:00:00 TS 35.6000 -72.2000 75 977 hurdat_atl main 298 297 O_____________ hurdat_atl AL091964 35.6000 -72.2000 HU 75 977 1 8 16
1964257N15316 1964 82 NA NA GLADYS 1964-09-23 09:00:00 TS 35.9621 -72.0660 main 306 306 P_____________ AL091964 35.9621 -72.0660 HU 75 979 1 9 22
1964257N15316 1964 82 NA NA GLADYS 1964-09-23 12:00:00 TS 36.4000 -71.8000 75 982 hurdat_atl main 338 338 O_____________ hurdat_atl AL091964 36.4000 -71.8000 HU 75 982 1 12 29
1964257N15316 1964 82 NA NA GLADYS 1964-09-23 15:00:00 TS 36.9971 -71.3466 main 363 359 P_____________ AL091964 36.9971 -71.3466 HU 77 978 1 16 34
1964257N15316 1964 82 NA NA GLADYS 1964-09-23 18:00:00 TS 37.7000 -70.7000 80 974 hurdat_atl main 370 347 O_____________ hurdat_atl AL091964 37.7000 -70.7000 HU 80 974 1 18 38
1964257N15316 1964 82 NA NA GLADYS 1964-09-23 21:00:00 TS 38.4196 -69.9233 main 351 288 P_____________ AL091964 38.4196 -69.9233 HU 77 977 1 20 42
1964257N15316 1964 82 NA NA GLADYS 1964-09-24 00:00:00 TS 39.2000 -69.0000 75 980 hurdat_atl main 290 247 O_____________ hurdat_atl AL091964 39.2000 -69.0000 HU 75 980 1 22 43
1964257N15316 1964 82 NA NA GLADYS 1964-09-24 03:00:00 TS 40.0186 -68.0213 main 252 244 P_____________ AL091964 40.0186 -68.0213 HU 75 981 1 23 43
1964257N15316 1964 82 NA NA GLADYS 1964-09-24 06:00:00 TS 40.9000 -66.9000 75 982 hurdat_atl main 273 189 O_____________ hurdat_atl AL091964 40.9000 -66.9000 HU 75 982 1 25 44
1964257N15316 1964 82 NA NA GLADYS 1964-09-24 09:00:00 TS 41.8297 -65.7148 main 189 114 P_____________ AL091964 41.8297 -65.7148 HU 75 1 28 47
1964257N15316 1964 82 NA NA GLADYS 1964-09-24 12:00:00 TS 42.8000 -64.2000 75 hurdat_atl main 118 118 O_____________ hurdat_atl AL091964 42.8000 -64.2000 HU 75 1 32 55
1964257N15316 1964 82 NA NA GLADYS 1964-09-24 15:00:00 TS 43.6831 -62.1527 main 120 100 P_____________ AL091964 43.6831 -62.1527 HU 72 1 37 59
1964257N15316 1964 82 NA NA GLADYS 1964-09-24 18:00:00 TS 44.7000 -59.8000 70 hurdat_atl main 110 104 O_____________ hurdat_atl AL091964 44.7000 -59.8000 HU 70 1 41 55
1964257N15316 1964 82 NA NA GLADYS 1964-09-24 21:00:00 TS 46.0180 -57.3900 main 154 0 P_____________ AL091964 46.0180 -57.3900 HU 65 1 44 51
1964257N15316 1964 82 NA NA GLADYS 1964-09-25 00:00:00 ET 47.5000 -54.9000 60 hurdat_atl main 0 O_____________ hurdat_atl AL091964 47.5000 -54.9000 EX 60 -4 45 49

IBTrACS Databaseについて

本データベースは、米国NOAAが公開する1842年以降の世界の熱帯低気圧のベストトラックデータアーカイブInternational Best Track Archive for Climate Stewardship (IBTrACS)を、ウェブで閲覧しやすい形式に変換したものです。

最終更新日:2021-12-06